sensor_id;sensor_type;location;lat;lon;timestamp;temperature;humidity
26272;DHT22;13997;48.902;12.472;2023-03-19T00:02:08;153.90;2252.80
26272;DHT22;13997;48.902;12.472;2023-03-19T00:04:33;153.90;2252.80
26272;DHT22;13997;48.902;12.472;2023-03-19T00:06:59;153.90;2252.80
26272;DHT22;13997;48.902;12.472;2023-03-19T00:09:25;153.80;2252.80
26272;DHT22;13997;48.902;12.472;2023-03-19T00:11:51;153.80;2252.80
26272;DHT22;13997;48.902;12.472;2023-03-19T00:14:17;153.70;2252.80
26272;DHT22;13997;48.902;12.472;2023-03-19T00:16:43;153.80;2252.80
26272;DHT22;13997;48.902;12.472;2023-03-19T00:19:08;153.80;2252.80
26272;DHT22;13997;48.902;12.472;2023-03-19T00:21:35;153.70;2252.80
26272;DHT22;13997;48.902;12.472;2023-03-19T00:24:01;153.70;2252.80
26272;DHT22;13997;48.902;12.472;2023-03-19T00:26:36;153.70;2252.80
26272;DHT22;13997;48.902;12.472;2023-03-19T00:29:03;153.70;2252.80
26272;DHT22;13997;48.902;12.472;2023-03-19T00:31:29;153.70;2252.80
26272;DHT22;13997;48.902;12.472;2023-03-19T00:33:58;153.70;2252.80
26272;DHT22;13997;48.902;12.472;2023-03-19T00:36:25;153.70;2252.80
26272;DHT22;13997;48.902;12.472;2023-03-19T00:38:51;153.70;2252.80
26272;DHT22;13997;48.902;12.472;2023-03-19T00:41:17;153.70;2252.80
26272;DHT22;13997;48.902;12.472;2023-03-19T00:43:45;153.70;2252.80
26272;DHT22;13997;48.902;12.472;2023-03-19T00:46:11;153.70;2252.80
26272;DHT22;13997;48.902;12.472;2023-03-19T00:48:37;153.70;2252.80
26272;DHT22;13997;48.902;12.472;2023-03-19T00:51:05;153.70;2252.80
26272;DHT22;13997;48.902;12.472;2023-03-19T00:53:31;153.60;2252.80
26272;DHT22;13997;48.902;12.472;2023-03-19T00:55:56;153.60;2252.80
26272;DHT22;13997;48.902;12.472;2023-03-19T00:58:22;153.60;2252.80
26272;DHT22;13997;48.902;12.472;2023-03-19T01:00:51;153.60;2252.80
26272;DHT22;13997;48.902;12.472;2023-03-19T01:03:17;153.60;2252.80
26272;DHT22;13997;48.902;12.472;2023-03-19T01:05:42;153.60;2252.80
26272;DHT22;13997;48.902;12.472;2023-03-19T01:08:08;128.90;2252.80
26272;DHT22;13997;48.902;12.472;2023-03-19T01:10:34;128.90;2252.80
26272;DHT22;13997;48.902;12.472;2023-03-19T01:12:59;128.90;2252.80
26272;DHT22;13997;48.902;12.472;2023-03-19T01:15:25;128.90;2252.80
26272;DHT22;13997;48.902;12.472;2023-03-19T01:17:51;128.80;2252.80
26272;DHT22;13997;48.902;12.472;2023-03-19T01:20:16;128.80;2252.80
26272;DHT22;13997;48.902;12.472;2023-03-19T01:22:44;128.70;2252.80
26272;DHT22;13997;48.902;12.472;2023-03-19T01:25:11;128.70;2252.80
26272;DHT22;13997;48.902;12.472;2023-03-19T01:27:38;128.70;2252.80
26272;DHT22;13997;48.902;12.472;2023-03-19T01:30:05;128.70;2252.80
26272;DHT22;13997;48.902;12.472;2023-03-19T01:32:32;128.70;2252.80
26272;DHT22;13997;48.902;12.472;2023-03-19T01:34:57;128.60;2252.80
26272;DHT22;13997;48.902;12.472;2023-03-19T01:37:23;128.60;2252.80
26272;DHT22;13997;48.902;12.472;2023-03-19T01:39:49;128.60;2252.80
26272;DHT22;13997;48.902;12.472;2023-03-19T01:42:15;128.50;2252.80
26272;DHT22;13997;48.902;12.472;2023-03-19T01:44:41;128.60;2252.80
26272;DHT22;13997;48.902;12.472;2023-03-19T01:47:25;128.50;2252.80
26272;DHT22;13997;48.902;12.472;2023-03-19T01:49:55;128.50;2252.80
26272;DHT22;13997;48.902;12.472;2023-03-19T01:52:22;128.50;2252.80
26272;DHT22;13997;48.902;12.472;2023-03-19T01:54:51;128.50;2252.80
26272;DHT22;13997;48.902;12.472;2023-03-19T01:57:18;128.50;2252.80
26272;DHT22;13997;48.902;12.472;2023-03-19T01:59:47;128.50;2252.80
26272;DHT22;13997;48.902;12.472;2023-03-19T02:02:27;128.40;2252.80
26272;DHT22;13997;48.902;12.472;2023-03-19T02:05:03;128.40;2252.80
26272;DHT22;13997;48.902;12.472;2023-03-19T02:07:31;128.40;2252.80
26272;DHT22;13997;48.902;12.472;2023-03-19T02:09:59;128.40;2252.80
26272;DHT22;13997;48.902;12.472;2023-03-19T02:12:25;128.40;2252.80
26272;DHT22;13997;48.902;12.472;2023-03-19T02:14:52;128.40;2252.80
26272;DHT22;13997;48.902;12.472;2023-03-19T02:17:17;128.40;2252.80
26272;DHT22;13997;48.902;12.472;2023-03-19T02:22:28;128.30;2252.80
26272;DHT22;13997;48.902;12.472;2023-03-19T02:25:12;128.30;2252.80
26272;DHT22;13997;48.902;12.472;2023-03-19T02:27:39;128.20;2252.80
26272;DHT22;13997;48.902;12.472;2023-03-19T02:30:24;128.20;2252.80
26272;DHT22;13997;48.902;12.472;2023-03-19T02:32:50;128.20;2252.80
26272;DHT22;13997;48.902;12.472;2023-03-19T02:35:16;128.20;2252.80
26272;DHT22;13997;48.902;12.472;2023-03-19T02:37:41;128.20;2252.80
26272;DHT22;13997;48.902;12.472;2023-03-19T02:40:14;128.30;2252.80
26272;DHT22;13997;48.902;12.472;2023-03-19T02:42:40;128.30;2252.80
26272;DHT22;13997;48.902;12.472;2023-03-19T02:45:06;128.30;2252.80
26272;DHT22;13997;48.902;12.472;2023-03-19T02:47:33;128.30;2252.80
26272;DHT22;13997;48.902;12.472;2023-03-19T02:49:58;128.30;2252.80
26272;DHT22;13997;48.902;12.472;2023-03-19T02:52:24;128.30;2252.80
26272;DHT22;13997;48.902;12.472;2023-03-19T02:54:50;128.30;2252.80
26272;DHT22;13997;48.902;12.472;2023-03-19T02:57:15;128.30;2252.80
26272;DHT22;13997;48.902;12.472;2023-03-19T02:59:41;128.30;2252.80
26272;DHT22;13997;48.902;12.472;2023-03-19T03:02:07;128.30;2252.80
26272;DHT22;13997;48.902;12.472;2023-03-19T03:04:34;128.20;2252.80
26272;DHT22;13997;48.902;12.472;2023-03-19T03:07:02;128.20;2252.80
26272;DHT22;13997;48.902;12.472;2023-03-19T03:09:27;128.20;2252.80
26272;DHT22;13997;48.902;12.472;2023-03-19T03:11:53;128.20;2252.80
26272;DHT22;13997;48.902;12.472;2023-03-19T03:14:19;128.20;2252.80
26272;DHT22;13997;48.902;12.472;2023-03-19T03:16:44;128.20;2252.80
26272;DHT22;13997;48.902;12.472;2023-03-19T03:19:10;128.20;2252.80
26272;DHT22;13997;48.902;12.472;2023-03-19T03:21:36;128.10;2252.80
26272;DHT22;13997;48.902;12.472;2023-03-19T03:24:02;128.10;2252.80
26272;DHT22;13997;48.902;12.472;2023-03-19T03:26:28;128.10;2252.80
26272;DHT22;13997;48.902;12.472;2023-03-19T03:28:53;128.10;2252.80
26272;DHT22;13997;48.902;12.472;2023-03-19T03:31:19;128.10;2252.80
26272;DHT22;13997;48.902;12.472;2023-03-19T03:33:45;128.10;2252.80
26272;DHT22;13997;48.902;12.472;2023-03-19T03:36:11;128.10;2252.80
26272;DHT22;13997;48.902;12.472;2023-03-19T03:38:37;128.10;2252.80
26272;DHT22;13997;48.902;12.472;2023-03-19T03:41:04;128.10;2252.80
26272;DHT22;13997;48.902;12.472;2023-03-19T03:43:30;128.10;2252.80
26272;DHT22;13997;48.902;12.472;2023-03-19T03:45:56;128.10;2252.80
26272;DHT22;13997;48.902;12.472;2023-03-19T03:48:21;128.10;2252.80
26272;DHT22;13997;48.902;12.472;2023-03-19T03:50:47;128.10;2252.80
26272;DHT22;13997;48.902;12.472;2023-03-19T03:53:13;128.10;2252.80
26272;DHT22;13997;48.902;12.472;2023-03-19T03:55:40;128.10;2252.80
26272;DHT22;13997;48.902;12.472;2023-03-19T03:58:06;128.10;2252.80
26272;DHT22;13997;48.902;12.472;2023-03-19T04:00:32;128.10;2252.80
26272;DHT22;13997;48.902;12.472;2023-03-19T04:02:58;128.10;2252.80
26272;DHT22;13997;48.902;12.472;2023-03-19T04:05:24;128.00;2252.80
26272;DHT22;13997;48.902;12.472;2023-03-19T04:07:50;128.00;2252.80
26272;DHT22;13997;48.902;12.472;2023-03-19T04:10:16;128.00;2252.80
26272;DHT22;13997;48.902;12.472;2023-03-19T04:12:42;128.00;2252.80
26272;DHT22;13997;48.902;12.472;2023-03-19T04:15:08;128.00;2252.80
26272;DHT22;13997;48.902;12.472;2023-03-19T04:17:35;128.00;2252.80
26272;DHT22;13997;48.902;12.472;2023-03-19T04:20:02;128.00;2252.80
26272;DHT22;13997;48.902;12.472;2023-03-19T04:22:29;128.00;2252.80
26272;DHT22;13997;48.902;12.472;2023-03-19T04:24:55;128.00;2252.80
26272;DHT22;13997;48.902;12.472;2023-03-19T04:27:20;128.00;2252.80
26272;DHT22;13997;48.902;12.472;2023-03-19T04:29:46;128.00;2252.80
26272;DHT22;13997;48.902;12.472;2023-03-19T04:32:12;128.00;2252.80
26272;DHT22;13997;48.902;12.472;2023-03-19T04:34:38;128.00;2252.80
26272;DHT22;13997;48.902;12.472;2023-03-19T04:37:03;128.00;2252.80
26272;DHT22;13997;48.902;12.472;2023-03-19T04:39:29;128.00;2252.80
26272;DHT22;13997;48.902;12.472;2023-03-19T04:41:54;128.00;2252.80
26272;DHT22;13997;48.902;12.472;2023-03-19T04:44:21;128.00;2252.80
26272;DHT22;13997;48.902;12.472;2023-03-19T04:46:47;103.30;2227.20
26272;DHT22;13997;48.902;12.472;2023-03-19T04:49:12;103.30;2227.20
26272;DHT22;13997;48.902;12.472;2023-03-19T04:51:38;103.30;2227.20
26272;DHT22;13997;48.902;12.472;2023-03-19T04:54:04;103.30;2227.20
26272;DHT22;13997;48.902;12.472;2023-03-19T04:56:30;103.20;2227.20
26272;DHT22;13997;48.902;12.472;2023-03-19T04:58:56;103.20;2227.20
26272;DHT22;13997;48.902;12.472;2023-03-19T05:01:21;103.20;2227.20
26272;DHT22;13997;48.902;12.472;2023-03-19T05:03:47;103.20;2227.20
26272;DHT22;13997;48.902;12.472;2023-03-19T05:06:13;103.20;2227.20
26272;DHT22;13997;48.902;12.472;2023-03-19T05:08:39;103.20;2227.20
26272;DHT22;13997;48.902;12.472;2023-03-19T05:11:04;103.20;2227.20
26272;DHT22;13997;48.902;12.472;2023-03-19T05:13:30;103.20;2227.20
26272;DHT22;13997;48.902;12.472;2023-03-19T05:15:55;103.20;2227.20
26272;DHT22;13997;48.902;12.472;2023-03-19T05:18:21;103.20;2227.20
26272;DHT22;13997;48.902;12.472;2023-03-19T05:20:47;103.20;2227.20
26272;DHT22;13997;48.902;12.472;2023-03-19T05:23:13;103.20;2227.20
26272;DHT22;13997;48.902;12.472;2023-03-19T05:25:38;103.30;2227.20
26272;DHT22;13997;48.902;12.472;2023-03-19T05:28:05;103.30;2227.20
26272;DHT22;13997;48.902;12.472;2023-03-19T05:30:33;103.30;2227.20
26272;DHT22;13997;48.902;12.472;2023-03-19T05:32:59;103.30;2227.20
26272;DHT22;13997;48.902;12.472;2023-03-19T05:35:27;103.30;2227.20
26272;DHT22;13997;48.902;12.472;2023-03-19T05:37:53;103.30;2227.20
26272;DHT22;13997;48.902;12.472;2023-03-19T05:40:19;128.00;2252.80
26272;DHT22;13997;48.902;12.472;2023-03-19T05:42:45;128.00;2252.80
26272;DHT22;13997;48.902;12.472;2023-03-19T05:45:10;128.00;2252.80
26272;DHT22;13997;48.902;12.472;2023-03-19T05:47:36;128.00;2252.80
26272;DHT22;13997;48.902;12.472;2023-03-19T05:50:04;128.10;2252.80
26272;DHT22;13997;48.902;12.472;2023-03-19T05:52:30;128.10;2252.80
26272;DHT22;13997;48.902;12.472;2023-03-19T05:54:56;128.10;2252.80
26272;DHT22;13997;48.902;12.472;2023-03-19T05:57:21;128.10;2252.80
26272;DHT22;13997;48.902;12.472;2023-03-19T05:59:47;128.10;2252.80
26272;DHT22;13997;48.902;12.472;2023-03-19T06:02:13;128.10;2252.80
26272;DHT22;13997;48.902;12.472;2023-03-19T06:04:39;128.10;2252.80
26272;DHT22;13997;48.902;12.472;2023-03-19T06:07:05;128.20;2252.80
26272;DHT22;13997;48.902;12.472;2023-03-19T06:09:31;128.20;2252.80
26272;DHT22;13997;48.902;12.472;2023-03-19T06:11:56;128.20;2252.80
26272;DHT22;13997;48.902;12.472;2023-03-19T06:14:22;128.30;2252.80
26272;DHT22;13997;48.902;12.472;2023-03-19T06:16:48;128.30;2252.80
26272;DHT22;13997;48.902;12.472;2023-03-19T06:19:15;128.30;2252.80
26272;DHT22;13997;48.902;12.472;2023-03-19T06:21:40;128.40;2252.80
26272;DHT22;13997;48.902;12.472;2023-03-19T06:24:06;128.50;2252.80
26272;DHT22;13997;48.902;12.472;2023-03-19T06:26:32;128.50;2252.80
26272;DHT22;13997;48.902;12.472;2023-03-19T06:28:58;128.50;2252.80
26272;DHT22;13997;48.902;12.472;2023-03-19T06:31:24;128.50;2252.80
26272;DHT22;13997;48.902;12.472;2023-03-19T06:33:50;128.40;2252.80
26272;DHT22;13997;48.902;12.472;2023-03-19T06:36:16;128.40;2252.80
26272;DHT22;13997;48.902;12.472;2023-03-19T06:38:42;128.40;2252.80
26272;DHT22;13997;48.902;12.472;2023-03-19T06:41:07;128.50;2252.80
26272;DHT22;13997;48.902;12.472;2023-03-19T06:43:33;128.50;2252.80
26272;DHT22;13997;48.902;12.472;2023-03-19T06:46:05;128.50;2252.80
26272;DHT22;13997;48.902;12.472;2023-03-19T06:48:31;128.60;2252.80
26272;DHT22;13997;48.902;12.472;2023-03-19T06:50:57;128.60;2252.80
26272;DHT22;13997;48.902;12.472;2023-03-19T06:53:23;128.70;2252.80
26272;DHT22;13997;48.902;12.472;2023-03-19T06:55:48;128.70;2252.80
26272;DHT22;13997;48.902;12.472;2023-03-19T06:58:14;128.80;2252.80
26272;DHT22;13997;48.902;12.472;2023-03-19T07:00:40;128.90;2252.80
26272;DHT22;13997;48.902;12.472;2023-03-19T07:03:06;153.60;2252.80
26272;DHT22;13997;48.902;12.472;2023-03-19T07:05:32;153.70;2252.80
26272;DHT22;13997;48.902;12.472;2023-03-19T07:07:57;153.70;2252.80
26272;DHT22;13997;48.902;12.472;2023-03-19T07:10:23;153.70;2252.80
26272;DHT22;13997;48.902;12.472;2023-03-19T07:12:48;153.80;2252.80
26272;DHT22;13997;48.902;12.472;2023-03-19T07:15:14;153.90;2252.80
26272;DHT22;13997;48.902;12.472;2023-03-19T07:17:44;154.00;2252.80
26272;DHT22;13997;48.902;12.472;2023-03-19T07:20:10;154.10;2252.80
26272;DHT22;13997;48.902;12.472;2023-03-19T07:22:36;154.00;2252.80
26272;DHT22;13997;48.902;12.472;2023-03-19T07:25:01;154.10;2252.80
26272;DHT22;13997;48.902;12.472;2023-03-19T07:27:27;154.20;2252.80
26272;DHT22;13997;48.902;12.472;2023-03-19T07:29:52;154.20;2252.80
26272;DHT22;13997;48.902;12.472;2023-03-19T07:32:20;154.30;2252.80
26272;DHT22;13997;48.902;12.472;2023-03-19T07:34:46;154.30;2252.80
26272;DHT22;13997;48.902;12.472;2023-03-19T07:37:12;154.40;2252.80
26272;DHT22;13997;48.902;12.472;2023-03-19T07:39:37;154.50;2252.80
26272;DHT22;13997;48.902;12.472;2023-03-19T07:42:04;179.20;2252.80
26272;DHT22;13997;48.902;12.472;2023-03-19T07:44:30;179.20;2252.80
26272;DHT22;13997;48.902;12.472;2023-03-19T07:46:55;179.30;2252.80
26272;DHT22;13997;48.902;12.472;2023-03-19T07:49:22;179.40;2252.80
26272;DHT22;13997;48.902;12.472;2023-03-19T07:51:48;179.50;2252.80
26272;DHT22;13997;48.902;12.472;2023-03-19T07:54:13;179.50;2252.80
26272;DHT22;13997;48.902;12.472;2023-03-19T07:56:39;179.60;2252.80
26272;DHT22;13997;48.902;12.472;2023-03-19T07:59:05;179.60;2252.80
26272;DHT22;13997;48.902;12.472;2023-03-19T08:01:31;179.70;2252.80
26272;DHT22;13997;48.902;12.472;2023-03-19T08:03:56;179.70;2252.80
26272;DHT22;13997;48.902;12.472;2023-03-19T08:06:22;179.70;2252.80
26272;DHT22;13997;48.902;12.472;2023-03-19T08:08:48;179.70;2252.80
26272;DHT22;13997;48.902;12.472;2023-03-19T08:11:13;179.90;2252.80
26272;DHT22;13997;48.902;12.472;2023-03-19T08:13:39;179.90;2252.80
26272;DHT22;13997;48.902;12.472;2023-03-19T08:16:05;180.00;2252.80
26272;DHT22;13997;48.902;12.472;2023-03-19T08:18:31;204.80;2252.80
26272;DHT22;13997;48.902;12.472;2023-03-19T08:20:56;204.90;2252.80
26272;DHT22;13997;48.902;12.472;2023-03-19T08:23:22;205.10;2252.80
26272;DHT22;13997;48.902;12.472;2023-03-19T08:25:48;205.20;2252.80
26272;DHT22;13997;48.902;12.472;2023-03-19T08:28:16;205.30;2252.80
26272;DHT22;13997;48.902;12.472;2023-03-19T08:30:42;205.30;2252.80
26272;DHT22;13997;48.902;12.472;2023-03-19T08:33:07;205.40;2252.80
26272;DHT22;13997;48.902;12.472;2023-03-19T08:35:33;205.50;2252.80
26272;DHT22;13997;48.902;12.472;2023-03-19T08:37:59;205.60;2252.80
26272;DHT22;13997;48.902;12.472;2023-03-19T08:40:24;230.40;2252.80
26272;DHT22;13997;48.902;12.472;2023-03-19T08:42:50;230.50;2252.80
26272;DHT22;13997;48.902;12.472;2023-03-19T08:45:16;230.50;2252.80
26272;DHT22;13997;48.902;12.472;2023-03-19T08:47:42;230.70;2252.80
26272;DHT22;13997;48.902;12.472;2023-03-19T08:50:08;230.80;2252.80
26272;DHT22;13997;48.902;12.472;2023-03-19T08:52:34;230.90;2252.80
26272;DHT22;13997;48.902;12.472;2023-03-19T08:54:59;231.10;2252.80
26272;DHT22;13997;48.902;12.472;2023-03-19T08:57:25;231.30;2252.80
26272;DHT22;13997;48.902;12.472;2023-03-19T08:59:53;256.10;2252.80
26272;DHT22;13997;48.902;12.472;2023-03-19T09:02:19;256.20;2252.80
26272;DHT22;13997;48.902;12.472;2023-03-19T09:04:45;256.40;2252.80
26272;DHT22;13997;48.902;12.472;2023-03-19T09:07:11;256.40;2252.80
26272;DHT22;13997;48.902;12.472;2023-03-19T09:09:38;256.50;2252.80
26272;DHT22;13997;48.902;12.472;2023-03-19T09:12:05;256.70;2252.80
26272;DHT22;13997;48.902;12.472;2023-03-19T09:14:32;256.90;2252.80
26272;DHT22;13997;48.902;12.472;2023-03-19T09:16:58;281.70;2278.40
26272;DHT22;13997;48.902;12.472;2023-03-19T09:19:23;281.90;2278.40
26272;DHT22;13997;48.902;12.472;2023-03-19T09:21:49;282.00;2278.40
26272;DHT22;13997;48.902;12.472;2023-03-19T09:24:15;282.10;2278.40
26272;DHT22;13997;48.902;12.472;2023-03-19T09:26:41;282.00;2278.40
26272;DHT22;13997;48.902;12.472;2023-03-19T09:29:06;281.90;2278.40
26272;DHT22;13997;48.902;12.472;2023-03-19T09:31:32;282.10;2278.40
26272;DHT22;13997;48.902;12.472;2023-03-19T09:33:58;282.20;2278.40
26272;DHT22;13997;48.902;12.472;2023-03-19T09:36:23;282.30;2278.40
26272;DHT22;13997;48.902;12.472;2023-03-19T09:38:49;282.40;2278.40
26272;DHT22;13997;48.902;12.472;2023-03-19T09:41:31;307.20;2304.00
26272;DHT22;13997;48.902;12.472;2023-03-19T09:44:24;307.30;2304.00
26272;DHT22;13997;48.902;12.472;2023-03-19T09:54:56;308.00;2304.00
26272;DHT22;13997;48.902;12.472;2023-03-19T09:57:23;308.00;2304.00
26272;DHT22;13997;48.902;12.472;2023-03-19T09:59:49;308.10;2304.00
26272;DHT22;13997;48.902;12.472;2023-03-19T10:02:39;332.80;2329.60
26272;DHT22;13997;48.902;12.472;2023-03-19T10:08:16;332.90;2329.60
26272;DHT22;13997;48.902;12.472;2023-03-19T10:13:51;308.10;2304.00
26272;DHT22;13997;48.902;12.472;2023-03-19T10:16:25;332.80;2329.60
26272;DHT22;13997;48.902;12.472;2023-03-19T10:18:54;332.90;2329.60
26272;DHT22;13997;48.902;12.472;2023-03-19T10:21:36;333.00;2329.60
26272;DHT22;13997;48.902;12.472;2023-03-19T10:24:14;333.10;2329.60
26272;DHT22;13997;48.902;12.472;2023-03-19T10:26:44;333.20;2329.60
26272;DHT22;13997;48.902;12.472;2023-03-19T10:59:47;384.10;2329.60
26272;DHT22;13997;48.902;12.472;2023-03-19T11:02:18;384.20;2329.60
26272;DHT22;13997;48.902;12.472;2023-03-19T11:04:45;384.10;2329.60
26272;DHT22;13997;48.902;12.472;2023-03-19T11:07:13;384.10;2329.60
26272;DHT22;13997;48.902;12.472;2023-03-19T11:09:45;359.30;2329.60
26272;DHT22;13997;48.902;12.472;2023-03-19T11:12:25;359.30;2329.60
26272;DHT22;13997;48.902;12.472;2023-03-19T11:14:52;359.00;2329.60
26272;DHT22;13997;48.902;12.472;2023-03-19T11:22:25;358.90;2329.60
26272;DHT22;13997;48.902;12.472;2023-03-19T11:24:58;358.50;2329.60
26272;DHT22;13997;48.902;12.472;2023-03-19T11:29:54;358.50;2329.60
26272;DHT22;13997;48.902;12.472;2023-03-19T11:35:13;333.70;2329.60
26272;DHT22;13997;48.902;12.472;2023-03-19T11:37:55;333.70;2329.60
26272;DHT22;13997;48.902;12.472;2023-03-19T11:43:40;333.70;2329.60
26272;DHT22;13997;48.902;12.472;2023-03-19T11:46:23;333.70;2329.60
26272;DHT22;13997;48.902;12.472;2023-03-19T11:54:56;358.40;2329.60
26272;DHT22;13997;48.902;12.472;2023-03-19T11:57:58;358.50;2329.60
26272;DHT22;13997;48.902;12.472;2023-03-19T12:00:45;358.60;2329.60
26272;DHT22;13997;48.902;12.472;2023-03-19T12:03:30;358.60;2329.60
26272;DHT22;13997;48.902;12.472;2023-03-19T12:08:54;358.60;2329.60
26272;DHT22;13997;48.902;12.472;2023-03-19T12:14:41;358.40;2329.60
26272;DHT22;13997;48.902;12.472;2023-03-19T12:17:28;358.40;2329.60
26272;DHT22;13997;48.902;12.472;2023-03-19T12:22:31;358.50;2329.60
26272;DHT22;13997;48.902;12.472;2023-03-19T12:30:33;358.70;2329.60
26272;DHT22;13997;48.902;12.472;2023-03-19T12:35:34;358.60;2329.60
26272;DHT22;13997;48.902;12.472;2023-03-19T12:38:20;358.60;2329.60
26272;DHT22;13997;48.902;12.472;2023-03-19T12:41:09;358.70;2329.60
26272;DHT22;13997;48.902;12.472;2023-03-19T12:49:05;358.80;2329.60
26272;DHT22;13997;48.902;12.472;2023-03-19T12:51:35;359.00;2329.60
26272;DHT22;13997;48.902;12.472;2023-03-19T12:54:27;359.10;2329.60
26272;DHT22;13997;48.902;12.472;2023-03-19T12:56:55;359.10;2329.60
26272;DHT22;13997;48.902;12.472;2023-03-19T12:59:36;359.10;2329.60
26272;DHT22;13997;48.902;12.472;2023-03-19T13:05:06;358.90;2329.60
26272;DHT22;13997;48.902;12.472;2023-03-19T13:07:57;359.00;2329.60
26272;DHT22;13997;48.902;12.472;2023-03-19T13:10:28;359.00;2329.60
26272;DHT22;13997;48.902;12.472;2023-03-19T13:12:55;359.10;2329.60
26272;DHT22;13997;48.902;12.472;2023-03-19T13:23:08;384.10;2329.60
26272;DHT22;13997;48.902;12.472;2023-03-19T13:25:41;384.00;2329.60
26272;DHT22;13997;48.902;12.472;2023-03-19T13:28:21;384.10;2329.60
26272;DHT22;13997;48.902;12.472;2023-03-19T13:31:06;384.10;2329.60
26272;DHT22;13997;48.902;12.472;2023-03-19T13:33:35;384.20;2329.60
26272;DHT22;13997;48.902;12.472;2023-03-19T13:36:06;384.20;2329.60
26272;DHT22;13997;48.902;12.472;2023-03-19T13:38:48;384.20;2329.60
26272;DHT22;13997;48.902;12.472;2023-03-19T13:44:00;384.30;2329.60
26272;DHT22;13997;48.902;12.472;2023-03-19T13:46:42;384.30;2329.60
26272;DHT22;13997;48.902;12.472;2023-03-19T13:51:49;384.10;2329.60
26272;DHT22;13997;48.902;12.472;2023-03-19T13:54:18;384.10;2329.60
26272;DHT22;13997;48.902;12.472;2023-03-19T13:59:43;384.00;2329.60
26272;DHT22;13997;48.902;12.472;2023-03-19T14:05:07;359.30;2329.60
26272;DHT22;13997;48.902;12.472;2023-03-19T14:07:43;359.30;2329.60
26272;DHT22;13997;48.902;12.472;2023-03-19T14:12:45;359.30;2329.60
26272;DHT22;13997;48.902;12.472;2023-03-19T14:15:22;384.00;2329.60
26272;DHT22;13997;48.902;12.472;2023-03-19T14:18:02;384.00;2329.60
26272;DHT22;13997;48.902;12.472;2023-03-19T14:20:49;384.20;2329.60
26272;DHT22;13997;48.902;12.472;2023-03-19T14:23:23;384.30;2329.60
26272;DHT22;13997;48.902;12.472;2023-03-19T14:26:04;384.40;2329.60
26272;DHT22;13997;48.902;12.472;2023-03-19T14:28:36;384.40;2329.60
26272;DHT22;13997;48.902;12.472;2023-03-19T14:31:04;384.50;2329.60
26272;DHT22;13997;48.902;12.472;2023-03-19T14:36:03;384.80;2329.60
26272;DHT22;13997;48.902;12.472;2023-03-19T14:38:49;384.90;2329.60
26272;DHT22;13997;48.902;12.472;2023-03-19T14:41:19;409.60;2355.20
26272;DHT22;13997;48.902;12.472;2023-03-19T14:46:49;409.80;2355.20
26272;DHT22;13997;48.902;12.472;2023-03-19T14:57:28;409.60;2355.20
26272;DHT22;13997;48.902;12.472;2023-03-19T14:59:54;384.80;2329.60
26272;DHT22;13997;48.902;12.472;2023-03-19T15:04:55;384.60;2329.60
26272;DHT22;13997;48.902;12.472;2023-03-19T15:07:27;384.50;2329.60
26272;DHT22;13997;48.902;12.472;2023-03-19T15:09:54;384.40;2329.60
26272;DHT22;13997;48.902;12.472;2023-03-19T15:17:38;384.40;2329.60
26272;DHT22;13997;48.902;12.472;2023-03-19T15:20:20;384.50;2329.60
26272;DHT22;13997;48.902;12.472;2023-03-19T15:22:59;384.40;2329.60
26272;DHT22;13997;48.902;12.472;2023-03-19T15:25:25;384.40;2329.60
26272;DHT22;13997;48.902;12.472;2023-03-19T15:28:24;384.40;2329.60
26272;DHT22;13997;48.902;12.472;2023-03-19T15:30:56;384.40;2329.60
26272;DHT22;13997;48.902;12.472;2023-03-19T15:33:24;384.40;2329.60
26272;DHT22;13997;48.902;12.472;2023-03-19T15:36:01;384.30;2329.60
26272;DHT22;13997;48.902;12.472;2023-03-19T15:38:33;384.30;2329.60
26272;DHT22;13997;48.902;12.472;2023-03-19T15:41:02;384.30;2329.60
26272;DHT22;13997;48.902;12.472;2023-03-19T15:43:29;384.20;2329.60
26272;DHT22;13997;48.902;12.472;2023-03-19T15:45:55;384.20;2329.60
26272;DHT22;13997;48.902;12.472;2023-03-19T15:48:26;384.20;2329.60
26272;DHT22;13997;48.902;12.472;2023-03-19T15:50:56;384.30;2329.60
26272;DHT22;13997;48.902;12.472;2023-03-19T15:53:30;384.30;2329.60
26272;DHT22;13997;48.902;12.472;2023-03-19T15:55:56;384.40;2329.60
26272;DHT22;13997;48.902;12.472;2023-03-19T15:58:24;384.50;2329.60
26272;DHT22;13997;48.902;12.472;2023-03-19T16:00:52;384.50;2329.60
26272;DHT22;13997;48.902;12.472;2023-03-19T16:03:24;384.70;2329.60
26272;DHT22;13997;48.902;12.472;2023-03-19T16:06:01;384.70;2329.60
26272;DHT22;13997;48.902;12.472;2023-03-19T16:08:28;384.50;2329.60
26272;DHT22;13997;48.902;12.472;2023-03-19T16:10:54;384.40;2329.60
26272;DHT22;13997;48.902;12.472;2023-03-19T16:13:21;384.40;2329.60
26272;DHT22;13997;48.902;12.472;2023-03-19T16:15:58;384.30;2329.60
26272;DHT22;13997;48.902;12.472;2023-03-19T16:18:25;384.30;2329.60
26272;DHT22;13997;48.902;12.472;2023-03-19T16:21:11;384.20;2329.60
26272;DHT22;13997;48.902;12.472;2023-03-19T16:23:42;384.20;2329.60
26272;DHT22;13997;48.902;12.472;2023-03-19T16:26:42;359.30;2329.60
26272;DHT22;13997;48.902;12.472;2023-03-19T16:32:02;359.20;2329.60
26272;DHT22;13997;48.902;12.472;2023-03-19T16:34:36;359.00;2329.60
26272;DHT22;13997;48.902;12.472;2023-03-19T16:39:57;358.80;2329.60
26272;DHT22;13997;48.902;12.472;2023-03-19T16:47:39;358.50;2329.60
26272;DHT22;13997;48.902;12.472;2023-03-19T16:50:05;358.40;2329.60
26272;DHT22;13997;48.902;12.472;2023-03-19T16:52:31;358.40;2329.60
26272;DHT22;13997;48.902;12.472;2023-03-19T16:54:58;333.70;2329.60
26272;DHT22;13997;48.902;12.472;2023-03-19T16:57:24;333.60;2329.60
26272;DHT22;13997;48.902;12.472;2023-03-19T16:59:50;333.60;2329.60
26272;DHT22;13997;48.902;12.472;2023-03-19T17:02:17;333.40;2329.60
26272;DHT22;13997;48.902;12.472;2023-03-19T17:04:43;333.40;2329.60
26272;DHT22;13997;48.902;12.472;2023-03-19T17:07:09;333.30;2329.60
26272;DHT22;13997;48.902;12.472;2023-03-19T17:09:35;333.30;2329.60
26272;DHT22;13997;48.902;12.472;2023-03-19T17:12:02;333.20;2329.60